createdAt,value
2018-07-24T00:00:50.996Z,70.29
2018-07-24T00:01:51.142Z,70.32
2018-07-24T00:02:50.941Z,70.53
2018-07-24T00:03:51.037Z,70.32
2018-07-24T00:04:51.827Z,70.43
2018-07-24T00:05:50.914Z,70.32
2018-07-24T00:06:51.077Z,71.16
2018-07-24T00:07:50.859Z,71.16
2018-07-24T00:08:50.889Z,71.36
2018-07-24T00:09:50.978Z,71.26
2018-07-24T00:10:50.992Z,72.06
2018-07-24T00:11:50.847Z,71.56
2018-07-24T00:12:50.945Z,71.86
2018-07-24T00:13:50.920Z,71.80
2018-07-24T00:14:50.879Z,71.59
2018-07-24T00:15:50.822Z,71.66
2018-07-24T00:16:50.863Z,71.70
2018-07-24T00:17:50.742Z,71.70
2018-07-24T00:18:50.745Z,71.70
2018-07-24T00:19:50.815Z,71.80
2018-07-24T00:20:50.729Z,71.80
2018-07-24T00:21:50.714Z,71.66
2018-07-24T00:22:50.706Z,72.30
2018-07-24T00:23:50.704Z,72.56
2018-07-24T00:24:50.750Z,72.60
2018-07-24T00:25:50.676Z,72.06
2018-07-24T00:26:50.660Z,72.40
2018-07-24T00:27:50.647Z,72.60
2018-07-24T00:28:50.636Z,72.90
2018-07-24T00:29:50.699Z,72.90
2018-07-24T00:30:50.614Z,72.40
2018-07-24T00:31:50.616Z,73.00
2018-07-24T00:32:50.594Z,72.90
2018-07-24T00:33:50.581Z,73.00
2018-07-24T00:34:50.675Z,73.00
2018-07-24T00:35:50.563Z,73.10
2018-07-24T00:36:50.553Z,73.20
2018-07-24T00:37:50.542Z,72.90
2018-07-24T00:38:50.527Z,72.20
2018-07-24T00:39:50.585Z,73.00
2018-07-24T00:40:50.516Z,72.00
2018-07-24T00:41:50.498Z,72.60
2018-07-24T00:42:50.488Z,73.30
2018-07-24T00:43:50.470Z,72.50
2018-07-24T00:44:50.527Z,72.60
2018-07-24T00:45:50.447Z,72.60
2018-07-24T00:46:50.435Z,73.03
2018-07-24T00:47:50.437Z,73.40
2018-07-24T00:48:50.416Z,73.03
2018-07-24T00:49:50.481Z,73.64
2018-07-24T00:50:50.387Z,73.44
2018-07-24T00:51:50.374Z,73.74
2018-07-24T00:52:50.413Z,73.54
2018-07-24T00:53:50.362Z,73.94
2018-07-24T00:54:50.423Z,73.13
2018-07-24T00:55:50.333Z,73.54
2018-07-24T00:56:50.321Z,73.64
2018-07-24T00:57:50.317Z,73.74
2018-07-24T00:58:50.317Z,73.84
2018-07-24T00:59:50.363Z,73.74
2018-07-24T01:00:50.282Z,73.44
2018-07-24T01:01:50.276Z,73.57
2018-07-24T01:02:50.262Z,73.33
2018-07-24T01:03:50.260Z,73.24
2018-07-24T01:04:50.321Z,73.27
2018-07-24T01:05:50.229Z,73.67
2018-07-24T01:06:50.217Z,73.84
2018-07-24T01:07:50.201Z,74.07
2018-07-24T01:08:50.190Z,73.67
2018-07-24T01:09:50.254Z,73.87
2018-07-24T01:10:50.173Z,73.57
2018-07-24T01:11:50.160Z,73.97
2018-07-24T01:12:50.148Z,73.87
2018-07-24T01:13:50.149Z,74.37
2018-07-24T01:14:50.203Z,74.37
2018-07-24T01:15:50.117Z,74.07
2018-07-24T01:16:50.113Z,74.07
2018-07-24T01:17:50.100Z,74.27
2018-07-24T01:18:50.078Z,74.57
2018-07-24T01:19:50.143Z,74.37
2018-07-24T01:20:50.058Z,74.41
2018-07-24T01:21:50.047Z,74.18
2018-07-24T01:22:50.045Z,73.87
2018-07-24T01:23:50.025Z,74.11
2018-07-24T01:24:50.108Z,74.21
2018-07-24T01:25:50.005Z,74.81
2018-07-24T01:26:49.999Z,74.11
2018-07-24T01:27:49.985Z,74.61
2018-07-24T01:28:49.981Z,74.31
2018-07-24T01:29:49.964Z,74.51
2018-07-24T01:30:50.015Z,74.41
2018-07-24T01:31:49.933Z,74.51
2018-07-24T01:32:49.922Z,74.81
2018-07-24T01:33:49.923Z,74.51
2018-07-24T01:34:49.913Z,75.01
2018-07-24T01:35:49.971Z,75.01
2018-07-24T01:36:49.877Z,75.31
2018-07-24T01:37:49.868Z,75.01
2018-07-24T01:38:49.884Z,75.15
2018-07-24T01:39:49.851Z,74.95
2018-07-24T01:40:49.928Z,74.95
2018-07-24T01:41:49.835Z,75.21
2018-07-24T01:42:49.814Z,75.51
2018-07-24T01:43:49.821Z,75.15
2018-07-24T01:44:49.797Z,75.51
2018-07-24T01:45:49.849Z,75.55
2018-07-24T01:46:49.769Z,76.25
2018-07-24T01:47:49.759Z,75.55
2018-07-24T01:48:49.746Z,75.35
2018-07-24T01:49:49.762Z,75.62
2018-07-24T01:50:49.811Z,76.35
2018-07-24T01:51:49.712Z,75.35
2018-07-24T01:52:49.708Z,75.75
2018-07-24T01:53:49.865Z,75.01
2018-07-24T01:54:49.686Z,74.95
2018-07-24T01:55:49.752Z,75.35
2018-07-24T01:56:49.669Z,76.25
2018-07-24T01:57:49.632Z,76.15
2018-07-24T01:58:49.665Z,76.15
2018-07-24T01:59:49.640Z,76.25
2018-07-24T02:00:49.684Z,76.39
2018-07-24T02:01:49.607Z,75.95
2018-07-24T02:02:49.594Z,76.29
2018-07-24T02:03:49.582Z,76.39
2018-07-24T02:04:49.567Z,76.25
2018-07-24T02:05:49.674Z,76.49
2018-07-24T02:06:49.556Z,76.39
2018-07-24T02:07:49.547Z,76.59
2018-07-24T02:08:49.534Z,76.45
2018-07-24T02:09:49.511Z,76.29
2018-07-24T02:10:49.580Z,76.89
2018-07-24T02:11:49.541Z,76.29
2018-07-24T02:12:49.481Z,76.49
2018-07-24T02:13:49.474Z,76.69
2018-07-24T02:14:49.459Z,76.39
2018-07-24T02:15:49.534Z,76.59
2018-07-24T02:16:49.435Z,76.19
2018-07-24T02:17:49.433Z,76.09
2018-07-24T02:18:49.425Z,76.59
2018-07-24T02:19:49.405Z,76.69
2018-07-24T02:20:49.461Z,76.49
2018-07-24T02:21:49.384Z,76.69
2018-07-24T02:22:49.377Z,76.79
2018-07-24T02:23:49.359Z,77.00
2018-07-24T02:24:49.358Z,76.49
2018-07-24T02:25:49.414Z,76.89
2018-07-24T02:26:49.327Z,76.39
2018-07-24T02:27:49.314Z,76.79
2018-07-24T02:28:49.306Z,76.49
2018-07-24T02:29:49.307Z,76.79
2018-07-24T02:30:49.364Z,76.59
2018-07-24T02:31:49.273Z,76.49
2018-07-24T02:32:49.257Z,76.49
2018-07-24T02:33:49.250Z,76.29
2018-07-24T02:34:49.249Z,76.49
2018-07-24T02:35:49.320Z,76.19
2018-07-24T02:36:49.217Z,75.89
2018-07-24T02:37:49.213Z,76.29
2018-07-24T02:38:49.192Z,76.39
2018-07-24T02:39:49.185Z,76.39
2018-07-24T02:40:49.256Z,76.39
2018-07-24T02:41:49.166Z,76.69
2018-07-24T02:42:49.155Z,76.39
2018-07-24T02:43:49.167Z,76.29
2018-07-24T02:44:49.132Z,76.43
2018-07-24T02:45:49.197Z,76.63
2018-07-24T02:46:49.111Z,77.00
2018-07-24T02:47:49.105Z,77.03
2018-07-24T02:48:49.102Z,77.23
2018-07-24T02:49:49.077Z,76.93
2018-07-24T02:50:49.140Z,77.03
2018-07-24T02:51:49.060Z,77.13
2018-07-24T02:52:49.042Z,77.13
2018-07-24T02:53:49.041Z,77.83
2018-07-24T02:54:49.024Z,77.73
2018-07-24T02:55:49.088Z,77.47
2018-07-24T02:56:48.999Z,78.27
2018-07-24T02:57:48.987Z,78.58
2018-07-24T02:58:48.978Z,78.67
2018-07-24T02:59:48.981Z,78.47
2018-07-24T03:00:49.041Z,78.47
2018-07-24T03:01:48.946Z,78.78
2018-07-24T03:02:48.933Z,78.88
2018-07-24T03:03:48.924Z,78.78
2018-07-24T03:04:48.917Z,78.67
2018-07-24T03:05:48.973Z,78.88
2018-07-24T03:06:48.890Z,78.88
2018-07-24T03:07:48.877Z,77.77
2018-07-24T03:08:48.868Z,78.67
2018-07-24T03:09:48.858Z,78.38
2018-07-24T03:10:48.850Z,78.47
2018-07-24T03:11:48.907Z,78.38
2018-07-24T03:12:48.849Z,78.47
2018-07-24T03:13:48.820Z,77.77
2018-07-24T03:14:48.804Z,78.58
2018-07-24T03:15:48.799Z,78.47
2018-07-24T03:16:48.868Z,78.17
2018-07-24T03:17:48.789Z,78.41
2018-07-24T03:18:48.767Z,78.58
2018-07-24T03:19:48.748Z,78.67
2018-07-24T03:20:48.755Z,78.88
2018-07-24T03:21:48.800Z,78.81
2018-07-24T03:22:48.725Z,78.71
2018-07-24T03:23:48.697Z,79.02
2018-07-24T03:24:48.690Z,78.91
2018-07-24T03:25:48.681Z,78.41
2018-07-24T03:26:48.743Z,78.91
2018-07-24T03:27:48.663Z,79.22
2018-07-24T03:28:48.651Z,79.02
2018-07-24T03:29:48.633Z,79.32
2018-07-24T03:30:48.635Z,79.92
2018-07-24T03:31:48.695Z,80.36
2018-07-24T03:32:48.606Z,80.22
2018-07-24T03:33:48.602Z,80.12
2018-07-24T03:34:48.590Z,79.92
2018-07-24T03:35:48.567Z,79.62
2018-07-24T03:36:48.627Z,79.42
2018-07-24T03:37:48.551Z,79.76
2018-07-24T03:38:48.538Z,79.92
2018-07-24T03:39:48.623Z,79.86
2018-07-24T03:40:48.517Z,79.92
2018-07-24T03:41:48.575Z,79.86
2018-07-24T03:42:48.490Z,79.96
2018-07-24T03:43:48.486Z,80.06
2018-07-24T03:44:48.478Z,79.96
2018-07-24T03:45:48.466Z,80.16
2018-07-24T03:46:48.519Z,80.06
2018-07-24T03:47:48.435Z,79.96
2018-07-24T03:48:48.440Z,79.86
2018-07-24T03:49:48.419Z,79.96
2018-07-24T03:50:48.409Z,79.76
2018-07-24T03:51:48.479Z,80.06
2018-07-24T03:52:48.382Z,80.36
2018-07-24T03:53:48.372Z,80.40
2018-07-24T03:54:48.360Z,80.87
2018-07-24T03:55:48.349Z,80.16
2018-07-24T03:56:48.400Z,80.57
2018-07-24T03:57:48.357Z,80.50
2018-07-24T03:58:48.316Z,80.16
2018-07-24T03:59:48.312Z,80.26
2018-07-24T04:00:48.298Z,80.16
2018-07-24T04:01:48.367Z,80.36
2018-07-24T04:02:48.276Z,80.46
2018-07-24T04:03:48.263Z,80.40
2018-07-24T04:04:48.250Z,80.46
2018-07-24T04:05:48.239Z,80.36
2018-07-24T04:06:48.316Z,80.70
2018-07-24T04:07:48.228Z,80.36
2018-07-24T04:08:48.215Z,80.57
2018-07-24T04:09:48.196Z,80.46
2018-07-24T04:10:48.188Z,80.36
2018-07-24T04:11:48.251Z,80.16
2018-07-24T04:12:48.165Z,80.26
2018-07-24T04:13:48.167Z,80.36
2018-07-24T04:14:48.123Z,80.16
2018-07-24T04:15:48.128Z,80.36
2018-07-24T04:16:48.225Z,80.66
2018-07-24T04:17:48.107Z,80.70
2018-07-24T04:18:48.101Z,80.57
2018-07-24T04:19:48.101Z,80.80
2018-07-24T04:20:48.074Z,80.80
2018-07-24T04:21:48.139Z,80.60
2018-07-24T04:22:48.056Z,80.70
2018-07-24T04:23:48.044Z,79.96
2018-07-24T04:24:48.060Z,80.57
2018-07-24T04:25:48.032Z,80.36
2018-07-24T04:26:48.087Z,80.16
2018-07-24T04:27:47.998Z,80.66
2018-07-24T04:28:47.999Z,80.46
2018-07-24T04:29:47.987Z,80.46
2018-07-24T04:30:48.022Z,80.57
2018-07-24T04:31:48.028Z,80.77
2018-07-24T04:32:47.947Z,80.06
2018-07-24T04:33:47.934Z,80.46
2018-07-24T04:34:47.923Z,80.16
2018-07-24T04:35:47.922Z,80.46
2018-07-24T04:36:47.975Z,80.46
2018-07-24T04:37:47.888Z,80.50
2018-07-24T04:38:47.876Z,80.77
2018-07-24T04:39:47.868Z,80.46
2018-07-24T04:40:47.860Z,80.16
2018-07-24T04:41:47.937Z,80.66
2018-07-24T04:42:47.855Z,80.26
2018-07-24T04:43:47.838Z,80.16
2018-07-24T04:44:47.813Z,79.96
2018-07-24T04:45:47.797Z,80.16
2018-07-24T04:46:47.874Z,80.87
2018-07-24T04:47:47.788Z,80.57
2018-07-24T04:48:47.771Z,80.36
2018-07-24T04:49:47.754Z,80.26
2018-07-24T04:50:47.748Z,80.12
2018-07-24T04:51:47.855Z,80.12
2018-07-24T04:52:47.725Z,80.12
2018-07-24T04:53:47.720Z,79.82
2018-07-24T04:54:47.706Z,80.02
2018-07-24T04:55:47.696Z,79.92
2018-07-24T04:56:47.776Z,80.02
2018-07-24T04:57:47.668Z,79.82
2018-07-24T04:58:47.669Z,79.72
2018-07-24T04:59:47.656Z,79.52
2018-07-24T05:00:47.636Z,79.38
2018-07-24T05:01:47.630Z,79.58
2018-07-24T05:02:47.687Z,79.08
2018-07-24T05:03:47.606Z,79.08
2018-07-24T05:04:47.603Z,78.03
2018-07-24T05:05:47.586Z,78.30
2018-07-24T05:06:47.579Z,77.90
2018-07-24T05:07:47.639Z,76.79
2018-07-24T05:08:47.548Z,77.26
2018-07-24T05:09:47.539Z,77.16
2018-07-24T05:10:47.540Z,76.65
2018-07-24T05:11:47.520Z,76.35
2018-07-24T05:12:47.584Z,76.65
2018-07-24T05:13:47.498Z,76.21
2018-07-24T05:14:47.487Z,76.12
2018-07-24T05:15:47.479Z,76.02
2018-07-24T05:16:47.516Z,75.71
2018-07-24T05:17:47.521Z,75.21
2018-07-24T05:18:47.445Z,75.01
2018-07-24T05:19:47.442Z,74.37
2018-07-24T05:20:47.420Z,74.37
2018-07-24T05:21:47.412Z,74.88
2018-07-24T05:22:47.489Z,74.77
2018-07-24T05:23:47.387Z,74.37
2018-07-24T05:24:47.372Z,74.77
2018-07-24T05:25:47.383Z,74.88
2018-07-24T05:26:47.351Z,74.37
2018-07-24T05:27:47.418Z,74.54
2018-07-24T05:28:47.332Z,74.44
2018-07-24T05:29:47.316Z,73.33
2018-07-24T05:30:47.305Z,74.24
2018-07-24T05:31:47.298Z,73.50
2018-07-24T05:32:47.364Z,73.70
2018-07-24T05:33:47.283Z,72.60
2018-07-24T05:34:47.281Z,72.50
2018-07-24T05:35:47.277Z,71.70
2018-07-24T05:36:47.238Z,72.00
2018-07-24T05:37:47.316Z,72.60
2018-07-24T05:38:47.296Z,71.20
2018-07-24T05:39:47.210Z,71.73
2018-07-24T05:40:47.213Z,72.24
2018-07-24T05:41:47.196Z,72.63
2018-07-24T05:42:47.274Z,72.24
2018-07-24T05:43:47.167Z,72.87
2018-07-24T05:44:47.182Z,72.63
2018-07-24T05:45:47.144Z,73.13
2018-07-24T05:46:47.132Z,73.03
2018-07-24T05:47:47.211Z,72.63
2018-07-24T05:48:47.133Z,73.64
2018-07-24T05:49:47.104Z,72.70
2018-07-24T05:50:47.094Z,72.70
2018-07-24T05:51:47.072Z,72.90
2018-07-24T05:52:47.142Z,72.20
2018-07-24T05:53:47.053Z,72.30
2018-07-24T05:54:47.048Z,72.30
2018-07-24T05:55:47.035Z,72.30
2018-07-24T05:56:47.028Z,72.60
2018-07-24T05:57:47.095Z,72.09
2018-07-24T05:58:47.000Z,71.66
2018-07-24T05:59:47.009Z,72.20
2018-07-24T06:00:46.992Z,72.86
2018-07-24T06:01:47.017Z,72.36
2018-07-24T06:02:47.028Z,72.27
2018-07-24T06:03:46.945Z,72.53
2018-07-24T06:04:46.928Z,71.33
2018-07-24T06:05:46.919Z,71.63
2018-07-24T06:06:46.952Z,70.50
2018-07-24T06:07:47.006Z,70.69
2018-07-24T06:08:46.897Z,71.19
2018-07-24T06:09:46.874Z,71.69
2018-07-24T06:10:46.866Z,70.36
2018-07-24T06:11:46.854Z,70.36
2018-07-24T06:12:46.937Z,69.76
2018-07-24T06:13:46.837Z,69.43
2018-07-24T06:14:46.822Z,68.52
2018-07-24T06:15:46.832Z,68.82
2018-07-24T06:16:46.861Z,68.02
2018-07-24T06:17:46.874Z,68.29
2018-07-24T06:18:46.792Z,68.19
2018-07-24T06:19:46.793Z,67.99
2018-07-24T06:20:46.752Z,67.66
2018-07-24T06:21:46.780Z,67.26
2018-07-24T06:22:46.813Z,66.36
2018-07-24T06:23:46.729Z,67.26
2018-07-24T06:24:46.721Z,66.46
2018-07-24T06:25:46.708Z,66.66
2018-07-24T06:26:46.692Z,66.26
2018-07-24T06:27:46.754Z,67.03
2018-07-24T06:28:46.664Z,66.76
2018-07-24T06:29:46.660Z,66.63
2018-07-24T06:30:46.652Z,65.73
2018-07-24T06:31:46.635Z,66.09
2018-07-24T06:32:46.716Z,65.20
2018-07-24T06:33:46.642Z,67.00
2018-07-24T06:34:46.602Z,66.47
2018-07-24T06:35:46.597Z,65.56
2018-07-24T06:36:46.590Z,65.17
2018-07-24T06:37:46.570Z,63.64
2018-07-24T06:38:46.651Z,64.24
2018-07-24T06:39:46.599Z,64.14
2018-07-24T06:40:46.535Z,65.61
2018-07-24T06:41:46.532Z,63.81
2018-07-24T06:42:46.515Z,63.44
2018-07-24T06:43:46.572Z,63.84
2018-07-24T06:44:46.514Z,64.71
2018-07-24T06:45:46.480Z,64.74
2018-07-24T06:46:46.483Z,65.80
2018-07-24T06:47:46.484Z,64.28
2018-07-24T06:48:46.548Z,63.18
2018-07-24T06:49:46.458Z,63.58
2018-07-24T06:50:46.445Z,63.15
2018-07-24T06:51:46.466Z,64.28
2018-07-24T06:52:46.405Z,62.75
2018-07-24T06:53:46.461Z,61.96
2018-07-24T06:54:46.424Z,62.05
2018-07-24T06:55:46.378Z,61.85
2018-07-24T06:56:46.356Z,63.35
2018-07-24T06:57:46.348Z,62.82
2018-07-24T06:58:46.424Z,62.13
2018-07-24T06:59:46.324Z,61.03
2018-07-24T07:00:46.312Z,62.29
2018-07-24T07:01:46.302Z,60.80
2018-07-24T07:02:46.311Z,60.21
2018-07-24T07:03:46.390Z,61.20
2018-07-24T07:04:46.274Z,59.81
2018-07-24T07:05:46.253Z,59.94
2018-07-24T07:06:46.265Z,60.43
2018-07-24T07:07:46.247Z,61.69
2018-07-24T07:08:46.307Z,60.11
2018-07-24T07:09:46.225Z,59.98
2018-07-24T07:10:46.236Z,59.28
2018-07-24T07:11:46.201Z,58.26
2018-07-24T07:12:46.192Z,58.26
2018-07-24T07:13:46.257Z,58.36
2018-07-24T07:14:46.163Z,58.16
2018-07-24T07:15:46.159Z,59.12
2018-07-24T07:16:46.171Z,58.62
2018-07-24T07:17:46.129Z,58.03
2018-07-24T07:18:46.190Z,58.80
2018-07-24T07:19:46.107Z,58.40
2018-07-24T07:20:46.094Z,58.60
2018-07-24T07:21:46.101Z,57.11
2018-07-24T07:22:46.076Z,57.11
2018-07-24T07:23:46.136Z,57.31
2018-07-24T07:24:46.057Z,55.32
2018-07-24T07:25:46.048Z,57.41
2018-07-24T07:26:46.034Z,56.88
2018-07-24T07:27:46.029Z,56.38
2018-07-24T07:28:46.089Z,56.49
2018-07-24T07:29:46.090Z,57.08
2018-07-24T07:30:46.002Z,54.80
2018-07-24T07:31:45.982Z,55.07
2018-07-24T07:32:45.971Z,55.76
2018-07-24T07:33:46.007Z,55.47
2018-07-24T07:34:45.950Z,55.17
2018-07-24T07:35:45.954Z,55.47
2018-07-24T07:36:45.941Z,54.75
2018-07-24T07:37:45.910Z,53.96
2018-07-24T07:38:46.016Z,54.75
2018-07-24T07:39:45.894Z,53.36
2018-07-24T07:40:45.919Z,53.45
2018-07-24T07:41:45.896Z,55.04
2018-07-24T07:42:45.856Z,52.66
2018-07-24T07:43:45.931Z,53.38
2018-07-24T07:44:45.834Z,54.57
2018-07-24T07:45:45.824Z,53.78
2018-07-24T07:46:45.816Z,55.27
2018-07-24T07:47:45.815Z,53.88
2018-07-24T07:48:45.866Z,55.07
2018-07-24T07:49:45.803Z,54.38
2018-07-24T07:50:45.771Z,53.48
2018-07-24T07:51:45.792Z,53.38
2018-07-24T07:52:45.753Z,54.08
2018-07-24T07:53:45.806Z,54.47
2018-07-24T07:54:45.737Z,56.26
2018-07-24T07:55:45.718Z,54.94
2018-07-24T07:56:45.725Z,53.56
2018-07-24T07:57:45.723Z,55.04
2018-07-24T07:58:45.811Z,53.96
2018-07-24T07:59:45.692Z,55.15
2018-07-24T08:00:45.752Z,55.15
2018-07-24T08:01:47.269Z,54.05
2018-07-24T08:02:45.660Z,53.03
2018-07-24T08:03:45.736Z,53.63
2018-07-24T08:04:45.618Z,53.43
2018-07-24T08:05:45.629Z,53.45
2018-07-24T08:06:45.607Z,53.56
2018-07-24T08:07:45.753Z,54.85
2018-07-24T08:08:45.651Z,55.32
2018-07-24T08:09:45.569Z,53.41
2018-07-24T08:10:45.650Z,53.70
2018-07-24T08:11:45.550Z,53.20
2018-07-24T08:12:45.541Z,52.19
2018-07-24T08:13:45.615Z,53.18
2018-07-24T08:14:45.523Z,51.79
2018-07-24T08:15:45.524Z,52.22
2018-07-24T08:16:45.493Z,52.78
2018-07-24T08:17:46.022Z,51.99
2018-07-24T08:18:45.469Z,52.66
2018-07-24T08:19:45.558Z,52.26
2018-07-24T08:20:45.476Z,51.40
2018-07-24T08:21:45.439Z,51.10
2018-07-24T08:22:45.422Z,52.46
2018-07-24T08:23:45.432Z,51.67
2018-07-24T08:24:45.478Z,50.68
2018-07-24T08:25:45.424Z,51.40
2018-07-24T08:26:45.383Z,51.18
2018-07-24T08:27:45.407Z,50.58
2018-07-24T08:28:45.407Z,52.26
2018-07-24T08:29:45.435Z,50.95
2018-07-24T08:30:45.336Z,50.83
2018-07-24T08:31:45.323Z,51.42
2018-07-24T08:32:45.321Z,49.72
2018-07-24T08:33:45.300Z,49.22
2018-07-24T08:34:45.362Z,48.43
2018-07-24T08:35:45.281Z,50.12
2018-07-24T08:36:45.273Z,47.66
2018-07-24T08:37:45.263Z,51.42
2018-07-24T08:38:45.244Z,49.25
2018-07-24T08:39:45.305Z,49.22
2018-07-24T08:40:45.224Z,49.64
2018-07-24T08:41:45.239Z,48.95
2018-07-24T08:42:45.240Z,49.94
2018-07-24T08:43:45.194Z,49.74
2018-07-24T08:44:45.357Z,49.15
2018-07-24T08:45:45.171Z,48.75
2018-07-24T08:46:45.165Z,49.25
2018-07-24T08:47:45.158Z,49.05
2018-07-24T08:48:45.190Z,51.62
2018-07-24T08:49:45.197Z,48.24
2018-07-24T08:50:45.132Z,47.86
2018-07-24T08:51:45.161Z,47.84
2018-07-24T08:52:45.428Z,47.22
2018-07-24T08:53:45.703Z,48.41
2018-07-24T08:54:45.368Z,47.42
2018-07-24T08:55:45.411Z,47.50
2018-07-24T08:56:45.057Z,47.40
2018-07-24T08:57:45.108Z,45.70
2018-07-24T08:58:48.117Z,46.29
2018-07-24T08:59:45.127Z,46.29
2018-07-24T09:00:45.012Z,45.60
2018-07-24T09:01:45.004Z,47.69
2018-07-24T09:02:44.992Z,46.98
2018-07-24T09:03:45.106Z,45.79
2018-07-24T09:04:45.107Z,45.60
2018-07-24T09:05:44.970Z,45.79
2018-07-24T09:06:44.955Z,45.79
2018-07-24T09:07:44.935Z,46.48
2018-07-24T09:08:44.972Z,45.82
2018-07-24T09:09:45.005Z,47.99
2018-07-24T09:10:44.911Z,46.22
2018-07-24T09:11:44.907Z,46.91
2018-07-24T09:12:44.886Z,45.03
2018-07-24T09:13:44.878Z,45.92
2018-07-24T09:14:44.987Z,46.01
2018-07-24T09:15:44.857Z,46.11
2018-07-24T09:16:44.850Z,46.69
2018-07-24T09:17:44.841Z,46.59
2018-07-24T09:18:44.840Z,46.69
2018-07-24T09:19:44.887Z,45.50
2018-07-24T09:20:44.817Z,45.79
2018-07-24T09:21:44.786Z,45.50
2018-07-24T09:22:44.796Z,45.10
2018-07-24T09:23:44.777Z,45.82
2018-07-24T09:24:44.827Z,46.48
2018-07-24T09:25:44.750Z,46.81
2018-07-24T09:26:44.733Z,45.82
2018-07-24T09:27:44.727Z,45.03
2018-07-24T09:28:44.718Z,44.91
2018-07-24T09:29:45.150Z,44.51
2018-07-24T09:30:44.695Z,45.40
2018-07-24T09:31:44.682Z,45.48
2018-07-24T09:32:44.668Z,46.17
2018-07-24T09:33:44.658Z,44.98
2018-07-24T09:34:44.724Z,44.98
2018-07-24T09:35:44.638Z,44.00
2018-07-24T09:36:44.621Z,44.57
2018-07-24T09:37:44.618Z,44.18
2018-07-24T09:38:44.599Z,44.37
2018-07-24T09:39:44.650Z,44.25
2018-07-24T09:40:44.583Z,42.08
2018-07-24T09:41:44.559Z,42.58
2018-07-24T09:42:44.567Z,43.07
2018-07-24T09:43:44.548Z,43.66
2018-07-24T09:44:44.617Z,43.27
2018-07-24T09:45:44.542Z,43.37
2018-07-24T09:46:44.535Z,43.37
2018-07-24T09:47:44.567Z,43.34
2018-07-24T09:48:44.493Z,43.44
2018-07-24T09:49:44.550Z,42.07
2018-07-24T09:50:44.472Z,42.07
2018-07-24T09:51:44.462Z,43.15
2018-07-24T09:52:44.450Z,43.15
2018-07-24T09:53:44.429Z,41.45
2018-07-24T09:54:44.543Z,42.04
2018-07-24T09:55:44.420Z,41.65
2018-07-24T09:56:44.410Z,41.75
2018-07-24T09:57:44.417Z,41.65
2018-07-24T09:58:44.383Z,42.14
2018-07-24T09:59:44.375Z,43.05
2018-07-24T10:00:44.434Z,43.37
2018-07-24T10:01:44.354Z,44.06
2018-07-24T10:02:44.349Z,43.07
2018-07-24T10:03:44.421Z,42.46
2018-07-24T10:04:44.333Z,41.06
2018-07-24T10:05:44.456Z,41.45
2018-07-24T10:06:44.404Z,41.45
2018-07-24T10:08:57.668Z,41.65
2018-07-24T10:09:57.757Z,41.45
2018-07-24T10:10:57.704Z,41.33
2018-07-24T10:11:57.796Z,41.04
2018-07-24T10:12:57.748Z,39.74
2018-07-24T10:13:57.716Z,39.44
2018-07-24T10:14:57.598Z,39.23
2018-07-24T10:15:57.556Z,38.84
2018-07-24T10:16:58.522Z,39.52
2018-07-24T10:17:57.463Z,38.93
2018-07-24T10:18:57.474Z,38.93
2018-07-24T10:19:58.040Z,38.93
2018-07-24T10:20:57.424Z,38.93
2018-07-24T10:21:57.419Z,39.72
2018-07-24T10:22:57.458Z,39.42
2018-07-24T10:23:57.391Z,39.31
2018-07-24T10:24:57.387Z,39.21
2018-07-24T10:25:57.467Z,39.31
2018-07-24T10:26:57.361Z,39.23
2018-07-24T10:27:57.350Z,39.42
2018-07-24T10:28:57.570Z,38.44
2018-07-24T10:29:57.333Z,39.62
2018-07-24T10:30:57.375Z,39.44
2018-07-24T10:31:57.312Z,39.25
2018-07-24T10:32:57.297Z,38.85
2018-07-24T10:33:57.282Z,38.95
2018-07-24T10:34:57.271Z,39.32
2018-07-24T10:35:57.319Z,38.93
2018-07-24T10:36:57.246Z,39.03
2018-07-24T10:37:57.813Z,38.23
2018-07-24T10:38:57.227Z,36.75
2018-07-24T10:39:57.227Z,38.13
2018-07-24T10:40:57.267Z,37.63
2018-07-24T10:41:57.195Z,38.31
2018-07-24T10:42:57.214Z,38.80
2018-07-24T10:43:57.178Z,38.31
2018-07-24T10:44:57.166Z,39.00
2018-07-24T10:45:57.211Z,38.21
2018-07-24T10:46:57.142Z,38.40
2018-07-24T10:47:57.132Z,38.62
2018-07-24T10:48:57.127Z,37.52
2018-07-24T10:49:57.115Z,38.21
2018-07-24T10:50:57.163Z,37.23
2018-07-24T10:51:57.100Z,38.09
2018-07-24T10:52:57.098Z,38.58
2018-07-24T10:53:57.086Z,38.88
2018-07-24T10:54:57.060Z,37.48
2018-07-24T10:55:57.118Z,36.62
2018-07-24T10:56:57.037Z,38.40
2018-07-24T10:57:57.030Z,38.31
2018-07-24T10:58:57.018Z,38.98
2018-07-24T10:59:57.022Z,36.72
2018-07-24T11:00:57.063Z,37.78
2018-07-24T11:01:56.983Z,38.17
2018-07-24T11:02:56.972Z,37.09
2018-07-24T11:03:56.967Z,36.99
2018-07-24T11:04:56.956Z,36.70
2018-07-24T11:05:57.010Z,36.90
2018-07-24T11:06:56.933Z,36.80
2018-07-24T11:07:56.924Z,36.11
2018-07-24T11:08:56.912Z,35.42
2018-07-24T11:09:56.909Z,35.31
2018-07-24T11:10:57.016Z,35.80
2018-07-24T11:11:56.888Z,35.72
2018-07-24T11:12:56.875Z,36.30
2018-07-24T11:13:56.859Z,36.60
2018-07-24T11:14:56.851Z,35.62
2018-07-24T11:15:56.902Z,35.82
2018-07-24T11:16:56.839Z,35.62
2018-07-24T11:17:56.826Z,35.78
2018-07-24T11:18:56.827Z,35.49
2018-07-24T11:19:56.795Z,35.88
2018-07-24T11:20:56.845Z,36.74
2018-07-24T11:21:56.784Z,35.75
2018-07-24T11:22:56.863Z,36.14
2018-07-24T11:23:56.766Z,35.94
2018-07-24T11:24:56.745Z,35.75
2018-07-24T11:25:56.794Z,35.85
2018-07-24T11:26:56.724Z,35.53
2018-07-24T11:27:56.718Z,35.83
2018-07-24T11:28:56.705Z,34.44
2018-07-24T11:29:56.693Z,34.93
2018-07-24T11:30:56.741Z,33.97
2018-07-24T11:31:56.668Z,33.29
2018-07-24T11:32:56.742Z,34.86
2018-07-24T11:33:56.647Z,34.88
2018-07-24T11:34:56.647Z,35.96
2018-07-24T11:35:56.874Z,34.77
2018-07-24T11:36:56.613Z,34.77
2018-07-24T11:37:56.608Z,34.88
2018-07-24T11:38:56.598Z,35.53
2018-07-24T11:39:56.590Z,34.65
2018-07-24T11:40:56.636Z,34.26
2018-07-24T11:41:56.589Z,33.38
2018-07-24T11:42:56.555Z,35.14
2018-07-24T11:43:56.551Z,34.65
2018-07-24T11:44:56.535Z,34.64
2018-07-24T11:45:56.595Z,34.93
2018-07-24T11:46:56.515Z,34.81
2018-07-24T11:47:56.516Z,33.25
2018-07-24T11:48:56.493Z,33.04
2018-07-24T11:49:56.487Z,32.53
2018-07-24T11:50:56.544Z,32.26
2018-07-24T11:51:56.533Z,33.45
2018-07-24T11:52:56.454Z,34.05
2018-07-24T11:53:56.478Z,33.79
2018-07-24T11:54:56.433Z,33.41
2018-07-24T11:55:56.479Z,34.88
2018-07-24T11:56:56.411Z,35.14
2018-07-24T11:57:56.398Z,35.22
2018-07-24T11:58:56.388Z,34.52
2018-07-24T11:59:56.376Z,34.03
2018-07-24T12:00:56.434Z,33.43
2018-07-24T12:01:56.362Z,33.22
2018-07-24T12:02:56.348Z,34.08
2018-07-24T12:03:56.342Z,32.04
2018-07-24T12:04:56.329Z,31.95
2018-07-24T12:05:56.394Z,33.02
2018-07-24T12:06:56.309Z,32.03
2018-07-24T12:07:56.351Z,32.63
2018-07-24T12:08:56.289Z,32.45
2018-07-24T12:09:56.282Z,32.73
2018-07-24T12:10:56.270Z,31.46
2018-07-24T12:11:56.311Z,31.38
2018-07-24T12:12:56.250Z,31.57
2018-07-24T12:13:56.245Z,31.36
2018-07-24T12:14:56.327Z,30.19
2018-07-24T12:15:56.222Z,30.97
2018-07-24T12:16:56.261Z,29.61
2018-07-24T12:17:56.196Z,31.00
2018-07-24T12:18:56.196Z,29.81
2018-07-24T12:19:56.181Z,30.80
2018-07-24T12:20:56.166Z,31.00
2018-07-24T12:21:56.214Z,30.51
2018-07-24T12:22:56.147Z,31.21
2018-07-24T12:23:56.137Z,31.23
2018-07-24T12:24:56.124Z,31.63
2018-07-24T12:25:56.116Z,31.44
2018-07-24T12:26:56.163Z,31.24
2018-07-24T12:27:56.094Z,30.93
2018-07-24T12:28:56.085Z,31.80
2018-07-24T12:29:56.076Z,30.13
2018-07-24T12:30:56.062Z,31.31
2018-07-24T12:31:56.117Z,31.11
2018-07-24T12:32:56.049Z,31.60
2018-07-24T12:33:56.032Z,31.31
2018-07-24T12:34:56.024Z,32.01
2018-07-24T12:35:56.122Z,32.97
2018-07-24T12:36:56.248Z,33.36
2018-07-24T12:37:56.145Z,32.39
2018-07-24T12:38:56.293Z,31.03
2018-07-24T12:39:56.018Z,31.32
2018-07-24T12:40:56.175Z,31.63
2018-07-24T12:41:56.329Z,31.14
2018-07-24T12:42:55.962Z,31.63
2018-07-24T12:43:56.015Z,31.44
2018-07-24T12:44:56.069Z,30.65
2018-07-24T12:45:56.188Z,31.83
2018-07-24T12:46:57.102Z,32.32
2018-07-24T12:47:55.891Z,32.53
2018-07-24T12:48:56.108Z,32.34
2018-07-24T12:49:55.920Z,33.02
2018-07-24T12:50:55.917Z,31.94
2018-07-24T12:51:55.901Z,31.93
2018-07-24T12:52:55.994Z,30.25
2018-07-24T12:53:55.826Z,30.55